createdAt,value
2023-04-26T00:02:21.057Z,41.28
2023-04-26T00:04:52.217Z,41.22
2023-04-26T00:07:24.840Z,41.28
2023-04-26T00:09:52.813Z,41.27
2023-04-26T00:12:20.421Z,41.21
2023-04-26T00:14:47.654Z,41.28
2023-04-26T00:17:14.818Z,41.23
2023-04-26T00:19:42.049Z,41.09
2023-04-26T00:22:09.262Z,40.93
2023-04-26T00:24:36.577Z,41.09
2023-04-26T00:27:08.932Z,41.04
2023-04-26T00:29:37.182Z,41.05
2023-04-26T00:32:04.765Z,41.14
2023-04-26T00:34:36.076Z,41.01
2023-04-26T00:37:04.216Z,41.24
2023-04-26T00:39:31.545Z,41.05
2023-04-26T00:41:58.918Z,40.88
2023-04-26T00:44:26.174Z,40.95
2023-04-26T00:46:54.083Z,40.84
2023-04-26T00:49:23.486Z,41.11
2023-04-26T00:51:51.759Z,41.01
2023-04-26T00:54:20.018Z,41.06
2023-04-26T00:56:47.504Z,41.08
2023-04-26T00:59:14.680Z,40.85
2023-04-26T01:01:42.681Z,41.07
2023-04-26T01:04:09.984Z,40.85
2023-04-26T01:06:38.530Z,40.99
2023-04-26T01:09:10.050Z,41.07
2023-04-26T01:11:38.143Z,41.02
2023-04-26T01:14:06.425Z,40.97
2023-04-26T01:16:33.835Z,40.87
2023-04-26T01:19:09.533Z,41.00
2023-04-26T01:21:36.690Z,40.88
2023-04-26T01:24:04.066Z,40.91
2023-04-26T01:26:32.062Z,40.91
2023-04-26T01:28:59.437Z,41.03
2023-04-26T01:31:26.642Z,41.07
2023-04-26T01:33:53.921Z,40.79
2023-04-26T01:36:21.207Z,40.83
2023-04-26T01:38:48.512Z,41.01
2023-04-26T01:41:16.501Z,40.80
2023-04-26T01:43:43.661Z,40.80
2023-04-26T01:46:10.967Z,40.98
2023-04-26T01:48:38.170Z,40.87
2023-04-26T01:51:05.432Z,40.99
2023-04-26T01:53:32.584Z,40.94
2023-04-26T01:56:02.823Z,40.86
2023-04-26T01:58:30.385Z,40.91
2023-04-26T02:01:04.465Z,40.85
2023-04-26T02:03:31.655Z,40.87
2023-04-26T02:05:58.872Z,40.91
2023-04-26T02:08:26.093Z,40.85
2023-04-26T02:10:53.306Z,40.78
2023-04-26T02:13:20.693Z,40.95
2023-04-26T02:15:51.535Z,40.83
2023-04-26T02:18:21.890Z,40.96
2023-04-26T02:20:51.924Z,41.00
2023-04-26T02:23:19.129Z,41.11
2023-04-26T02:25:50.031Z,40.75
2023-04-26T02:28:17.544Z,40.95
2023-04-26T02:30:44.911Z,40.86
2023-04-26T02:33:12.309Z,40.88
2023-04-26T02:35:39.500Z,40.83
2023-04-26T02:38:06.912Z,40.95
2023-04-26T02:40:34.166Z,40.81
2023-04-26T02:43:01.575Z,40.84
2023-04-26T02:45:28.758Z,40.82
2023-04-26T02:47:56.127Z,40.76
2023-04-26T02:50:23.817Z,40.77
2023-04-26T02:52:51.036Z,40.74
2023-04-26T02:55:18.375Z,40.77
2023-04-26T02:57:45.620Z,40.82
2023-04-26T03:00:14.034Z,40.81
2023-04-26T03:02:41.751Z,40.59
2023-04-26T03:05:09.694Z,41.08
2023-04-26T03:07:37.283Z,40.79
2023-04-26T03:10:05.397Z,40.82
2023-04-26T03:12:32.560Z,41.00
2023-04-26T03:14:59.852Z,40.83
2023-04-26T03:17:27.059Z,41.01
2023-04-26T03:19:54.279Z,40.82
2023-04-26T03:22:21.532Z,40.70
2023-04-26T03:24:49.199Z,40.99
2023-04-26T03:27:16.753Z,40.70
2023-04-26T03:29:44.324Z,40.74
2023-04-26T03:32:11.742Z,40.85
2023-04-26T03:34:39.001Z,40.94
2023-04-26T03:37:06.492Z,41.02
2023-04-26T03:39:33.754Z,40.64
2023-04-26T03:42:01.236Z,40.75
2023-04-26T03:44:30.498Z,40.76
2023-04-26T03:46:58.312Z,40.75
2023-04-26T03:49:25.558Z,40.78
2023-04-26T03:51:52.775Z,40.81
2023-04-26T03:54:20.108Z,40.76
2023-04-26T03:56:47.339Z,40.77
2023-04-26T03:59:14.696Z,40.79
2023-04-26T04:01:42.115Z,40.67
2023-04-26T04:04:10.134Z,40.74
2023-04-26T04:06:38.356Z,40.93
2023-04-26T04:09:05.957Z,40.81
2023-04-26T04:11:33.171Z,40.79
2023-04-26T04:14:00.367Z,40.73
2023-04-26T04:16:27.667Z,40.72
2023-04-26T04:18:55.115Z,40.75
2023-04-26T04:21:22.507Z,40.79
2023-04-26T04:23:50.287Z,40.76
2023-04-26T04:26:19.094Z,40.81
2023-04-26T04:28:47.291Z,40.57
2023-04-26T04:31:14.675Z,40.73
2023-04-26T04:33:42.022Z,40.62
2023-04-26T04:36:09.795Z,40.68
2023-04-26T04:38:37.324Z,40.67
2023-04-26T04:41:04.562Z,40.78
2023-04-26T04:43:31.730Z,40.86
2023-04-26T04:45:58.956Z,40.82
2023-04-26T04:48:26.230Z,40.54
2023-04-26T04:50:53.455Z,40.70
2023-04-26T04:53:20.859Z,40.64
2023-04-26T04:55:49.316Z,40.69
2023-04-26T04:58:16.479Z,40.51
2023-04-26T05:00:43.651Z,40.89
2023-04-26T05:03:11.030Z,40.74
2023-04-26T05:05:38.253Z,40.04
2023-04-26T05:08:07.950Z,39.32
2023-04-26T05:10:36.136Z,38.63
2023-04-26T05:13:03.601Z,38.35
2023-04-26T05:15:30.861Z,38.09
2023-04-26T05:17:59.609Z,37.76
2023-04-26T05:20:27.024Z,38.14
2023-04-26T05:22:54.302Z,39.30
2023-04-26T05:25:22.704Z,39.42
2023-04-26T05:27:50.464Z,38.66
2023-04-26T05:30:17.744Z,38.91
2023-04-26T05:32:45.948Z,38.87
2023-04-26T05:35:13.322Z,38.60
2023-04-26T05:37:40.679Z,38.69
2023-04-26T05:40:08.970Z,38.98
2023-04-26T05:42:36.844Z,38.66
2023-04-26T05:45:04.640Z,38.34
2023-04-26T05:47:31.833Z,38.04
2023-04-26T05:50:01.460Z,37.66
2023-04-26T05:52:28.639Z,38.07
2023-04-26T05:54:55.865Z,37.77
2023-04-26T05:57:23.072Z,37.39
2023-04-26T05:59:50.713Z,37.35
2023-04-26T06:02:18.026Z,37.75
2023-04-26T06:04:46.358Z,37.54
2023-04-26T06:07:13.732Z,37.55
2023-04-26T06:09:40.986Z,37.41
2023-04-26T06:12:08.310Z,37.05
2023-04-26T06:14:35.542Z,37.40
2023-04-26T06:17:03.251Z,37.16
2023-04-26T06:19:30.673Z,37.13
2023-04-26T06:21:57.954Z,37.04
2023-04-26T06:24:26.106Z,37.48
2023-04-26T06:26:56.077Z,36.96
2023-04-26T06:29:23.410Z,37.04
2023-04-26T06:31:50.622Z,36.79
2023-04-26T06:34:17.833Z,36.85
2023-04-26T06:36:48.414Z,36.60
2023-04-26T06:39:15.654Z,36.63
2023-04-26T06:41:43.447Z,36.69
2023-04-26T06:44:10.673Z,36.58
2023-04-26T06:46:38.345Z,36.54
2023-04-26T06:49:05.806Z,36.29
2023-04-26T06:51:33.012Z,36.19
2023-04-26T06:54:01.032Z,36.65
2023-04-26T06:56:30.427Z,36.52
2023-04-26T06:59:02.605Z,36.20
2023-04-26T07:01:33.654Z,36.33
2023-04-26T07:04:04.092Z,36.16
2023-04-26T07:06:32.105Z,36.06
2023-04-26T07:09:01.351Z,36.10
2023-04-26T07:11:28.990Z,35.69
2023-04-26T07:13:56.708Z,36.02
2023-04-26T07:16:24.263Z,36.05
2023-04-26T07:18:52.881Z,36.18
2023-04-26T07:21:20.481Z,35.85
2023-04-26T07:23:47.703Z,35.96
2023-04-26T07:26:14.912Z,35.70
2023-04-26T07:28:42.157Z,35.59
2023-04-26T07:31:11.036Z,35.71
2023-04-26T07:33:38.775Z,35.59
2023-04-26T07:36:06.216Z,35.91
2023-04-26T07:38:33.525Z,35.80
2023-04-26T07:41:04.582Z,35.55
2023-04-26T07:43:32.057Z,35.80
2023-04-26T07:46:02.589Z,35.60
2023-04-26T07:48:29.958Z,35.49
2023-04-26T07:50:57.503Z,35.39
2023-04-26T07:53:24.791Z,35.67
2023-04-26T07:55:52.126Z,35.69
2023-04-26T07:58:19.427Z,35.80
2023-04-26T08:00:46.714Z,35.54
2023-04-26T08:03:17.812Z,35.79
2023-04-26T08:05:45.623Z,35.67
2023-04-26T08:08:13.082Z,35.71
2023-04-26T08:10:43.129Z,35.82
2023-04-26T08:13:10.414Z,35.86
2023-04-26T08:15:37.801Z,35.57
2023-04-26T08:18:05.553Z,35.77
2023-04-26T08:20:32.831Z,35.52
2023-04-26T08:23:00.558Z,35.68
2023-04-26T08:25:28.081Z,35.53
2023-04-26T08:27:55.281Z,35.77
2023-04-26T08:30:23.223Z,35.38
2023-04-26T08:32:50.611Z,35.47
2023-04-26T08:35:17.904Z,35.51
2023-04-26T08:37:45.332Z,35.62
2023-04-26T08:40:12.861Z,34.99
2023-04-26T08:42:42.375Z,34.98
2023-04-26T08:45:11.504Z,35.21
2023-04-26T08:47:41.221Z,35.22
2023-04-26T08:50:09.334Z,35.27
2023-04-26T08:52:37.305Z,35.16
2023-04-26T08:55:06.248Z,35.43
2023-04-26T08:57:33.692Z,34.72
2023-04-26T09:00:05.797Z,35.26
2023-04-26T09:02:33.463Z,35.19
2023-04-26T09:05:00.851Z,34.93
2023-04-26T09:07:33.068Z,35.10
2023-04-26T09:10:04.119Z,34.94
2023-04-26T09:12:31.301Z,34.94
2023-04-26T09:14:58.611Z,35.04
2023-04-26T09:17:27.523Z,35.13
2023-04-26T09:19:54.973Z,34.90
2023-04-26T09:22:29.892Z,34.82
2023-04-26T09:24:57.101Z,35.03
2023-04-26T09:27:39.864Z,34.90
2023-04-26T09:30:09.405Z,34.74
2023-04-26T09:32:49.299Z,34.65
2023-04-26T09:35:32.168Z,34.67
2023-04-26T09:38:10.528Z,34.18
2023-04-26T09:40:47.234Z,34.20
2023-04-26T09:43:16.635Z,33.86
2023-04-26T09:45:57.690Z,34.32
2023-04-26T09:48:34.359Z,34.10
2023-04-26T09:51:04.800Z,33.90
2023-04-26T09:53:46.493Z,33.29
2023-04-26T09:56:14.630Z,33.33
2023-04-26T09:58:47.243Z,33.90
2023-04-26T10:01:20.700Z,33.74
2023-04-26T10:03:47.995Z,33.37
2023-04-26T10:06:16.149Z,33.20
2023-04-26T10:08:43.782Z,33.24
2023-04-26T10:11:11.859Z,33.05
2023-04-26T10:13:40.400Z,33.15
2023-04-26T10:16:09.906Z,33.59
2023-04-26T10:18:37.751Z,33.85
2023-04-26T10:21:16.916Z,34.51
2023-04-26T10:23:44.553Z,35.30
2023-04-26T10:26:51.666Z,35.41
2023-04-26T10:29:19.678Z,35.72
2023-04-26T10:32:07.680Z,35.74
2023-04-26T10:34:38.677Z,35.54
2023-04-26T10:37:13.488Z,35.14
2023-04-26T10:39:42.140Z,34.68
2023-04-26T10:42:30.828Z,35.14
2023-04-26T10:44:59.567Z,35.34
2023-04-26T10:47:36.437Z,35.34
2023-04-26T10:50:08.886Z,35.51
2023-04-26T10:52:58.772Z,35.88
2023-04-26T10:55:42.971Z,35.77
2023-04-26T10:58:32.217Z,36.05
2023-04-26T11:01:06.433Z,35.91
2023-04-26T11:03:33.918Z,36.38
2023-04-26T11:06:02.539Z,36.27
2023-04-26T11:08:31.894Z,36.34
2023-04-26T11:11:10.516Z,36.34
2023-04-26T11:13:41.982Z,36.58
2023-04-26T11:16:16.715Z,36.63
2023-04-26T11:18:48.682Z,36.78
2023-04-26T11:21:18.960Z,36.79
2023-04-26T11:23:55.761Z,36.83
2023-04-26T11:26:24.632Z,36.86
2023-04-26T11:28:52.142Z,36.72
2023-04-26T11:31:19.864Z,36.96
2023-04-26T11:33:50.772Z,36.87
2023-04-26T11:36:19.760Z,37.09
2023-04-26T11:38:47.168Z,37.01
2023-04-26T11:41:14.329Z,37.00
2023-04-26T11:43:41.865Z,37.21
2023-04-26T11:46:10.091Z,37.36
2023-04-26T11:48:38.537Z,37.13
2023-04-26T11:51:07.291Z,37.39
2023-04-26T11:53:38.412Z,37.51
2023-04-26T11:56:18.943Z,37.26
2023-04-26T11:58:51.290Z,37.32
2023-04-26T12:01:26.529Z,37.58
2023-04-26T12:03:55.627Z,37.52
2023-04-26T12:06:42.547Z,37.45
2023-04-26T12:09:11.260Z,37.58
2023-04-26T12:11:39.052Z,37.55
2023-04-26T12:14:07.929Z,37.63
2023-04-26T12:16:38.256Z,37.66
2023-04-26T12:19:09.163Z,37.75
2023-04-26T12:21:43.486Z,37.34
2023-04-26T12:24:38.707Z,37.65
2023-04-26T12:27:07.314Z,37.51
2023-04-26T12:29:35.113Z,37.51
2023-04-26T12:32:03.162Z,37.73
2023-04-26T12:34:31.155Z,37.77
2023-04-26T12:36:58.779Z,37.66
2023-04-26T12:39:26.090Z,37.66
2023-04-26T12:41:53.385Z,37.78
2023-04-26T12:44:22.463Z,37.66
2023-04-26T12:46:50.165Z,37.77
2023-04-26T12:49:17.564Z,37.99
2023-04-26T12:51:44.788Z,37.71
2023-04-26T12:54:12.156Z,37.96
2023-04-26T12:56:43.783Z,37.80
2023-04-26T12:59:11.176Z,37.89
2023-04-26T13:01:38.621Z,37.84
2023-04-26T13:04:06.586Z,37.91
2023-04-26T13:06:34.133Z,37.90
2023-04-26T13:09:01.711Z,37.71
2023-04-26T13:11:29.037Z,37.65
2023-04-26T13:13:56.243Z,37.71
2023-04-26T13:16:23.513Z,37.73
2023-04-26T13:18:50.854Z,37.64
2023-04-26T13:21:18.051Z,37.90
2023-04-26T13:23:47.326Z,37.98
2023-04-26T13:26:17.573Z,38.23
2023-04-26T13:28:44.827Z,38.09
2023-04-26T13:31:12.102Z,37.99
2023-04-26T13:33:39.323Z,38.07
2023-04-26T13:36:07.255Z,38.15
2023-04-26T13:38:34.508Z,38.18
2023-04-26T13:41:02.387Z,38.19
2023-04-26T13:43:29.613Z,38.27
2023-04-26T13:45:56.876Z,38.24
2023-04-26T13:48:24.259Z,38.44
2023-04-26T13:50:51.493Z,38.59
2023-04-26T13:53:19.891Z,38.81
2023-04-26T13:55:47.089Z,39.16
2023-04-26T13:58:14.803Z,39.31
2023-04-26T14:00:42.444Z,39.24
2023-04-26T14:03:09.808Z,39.46
2023-04-26T14:05:37.387Z,39.57
2023-04-26T14:08:04.642Z,39.71
2023-04-26T14:10:32.242Z,39.87
2023-04-26T14:12:59.423Z,39.74
2023-04-26T14:15:26.659Z,39.93
2023-04-26T14:17:53.903Z,39.74
2023-04-26T14:20:21.321Z,39.85
2023-04-26T14:22:50.220Z,39.93
2023-04-26T14:25:17.548Z,36.01
2023-04-26T14:27:44.745Z,36.70
2023-04-26T14:30:12.524Z,36.67
2023-04-26T14:32:39.853Z,36.74
2023-04-26T14:35:07.344Z,36.52
2023-04-26T14:37:34.519Z,36.67
2023-04-26T14:40:01.915Z,36.72
2023-04-26T14:42:29.455Z,36.27
2023-04-26T14:44:59.529Z,36.57
2023-04-26T14:47:27.111Z,36.56
2023-04-26T14:49:54.301Z,35.90
2023-04-26T14:52:21.554Z,36.16
2023-04-26T14:54:48.823Z,36.15
2023-04-26T14:57:16.134Z,36.16
2023-04-26T14:59:45.873Z,36.07
2023-04-26T15:02:13.171Z,36.08
2023-04-26T15:04:40.607Z,36.18
2023-04-26T15:07:13.049Z,36.01
2023-04-26T15:09:48.191Z,35.82
2023-04-26T15:12:15.349Z,35.64
2023-04-26T15:14:42.565Z,36.02
2023-04-26T15:17:09.743Z,36.04
2023-04-26T15:19:37.013Z,35.82
2023-04-26T15:22:04.657Z,35.78
2023-04-26T15:24:36.886Z,35.98
2023-04-26T15:27:05.025Z,35.63
2023-04-26T15:29:35.340Z,35.93
2023-04-26T15:32:03.102Z,35.73
2023-04-26T15:34:40.357Z,36.04
2023-04-26T15:37:07.861Z,36.07
2023-04-26T15:39:35.079Z,36.15
2023-04-26T15:42:02.503Z,36.16
2023-04-26T15:44:30.377Z,36.46
2023-04-26T15:46:57.892Z,36.55
2023-04-26T15:49:25.648Z,36.47
2023-04-26T15:51:53.007Z,36.72
2023-04-26T15:54:21.746Z,36.64
2023-04-26T15:56:49.142Z,36.45
2023-04-26T15:59:20.159Z,36.54
2023-04-26T16:01:47.708Z,36.56
2023-04-26T16:04:15.304Z,36.56
2023-04-26T16:06:42.674Z,36.33
2023-04-26T16:09:24.925Z,36.26
2023-04-26T16:11:53.190Z,36.42
2023-04-26T16:14:20.501Z,36.27
2023-04-26T16:16:47.750Z,36.28
2023-04-26T16:19:16.344Z,36.27
2023-04-26T16:21:43.633Z,36.11
2023-04-26T16:24:12.303Z,35.75
2023-04-26T16:26:39.603Z,35.53
2023-04-26T16:29:06.817Z,35.38
2023-04-26T16:31:34.625Z,35.30
2023-04-26T16:34:01.892Z,35.17
2023-04-26T16:36:29.080Z,34.95
2023-04-26T16:38:56.644Z,34.84
2023-04-26T16:41:24.528Z,34.76
2023-04-26T16:43:54.063Z,34.71
2023-04-26T16:46:21.454Z,34.39
2023-04-26T16:48:48.761Z,34.29
2023-04-26T16:51:16.186Z,34.44
2023-04-26T16:53:43.650Z,34.37
2023-04-26T16:56:11.047Z,33.97
2023-04-26T16:58:38.339Z,33.96
2023-04-26T17:01:06.012Z,33.92
2023-04-26T17:03:33.420Z,33.97
2023-04-26T17:06:01.486Z,33.96
2023-04-26T17:08:28.749Z,34.03
2023-04-26T17:10:56.362Z,34.14
2023-04-26T17:13:24.243Z,34.19
2023-04-26T17:15:51.491Z,34.39
2023-04-26T17:18:18.715Z,34.44
2023-04-26T17:20:45.892Z,34.45
2023-04-26T17:23:13.221Z,34.71
2023-04-26T17:25:40.452Z,34.48
2023-04-26T17:28:07.656Z,34.56
2023-04-26T17:30:34.863Z,34.96
2023-04-26T17:33:02.074Z,35.23
2023-04-26T17:35:29.327Z,35.14
2023-04-26T17:37:56.488Z,35.37
2023-04-26T17:40:24.317Z,35.55
2023-04-26T17:42:51.528Z,35.63
2023-04-26T17:45:18.697Z,35.79
2023-04-26T17:47:46.109Z,35.98
2023-04-26T17:50:13.686Z,36.25
2023-04-26T17:52:40.844Z,36.22
2023-04-26T17:55:10.035Z,36.49
2023-04-26T17:57:37.715Z,36.40
2023-04-26T18:00:09.883Z,36.64
2023-04-26T18:02:37.486Z,36.70
2023-04-26T18:05:05.866Z,36.89
2023-04-26T18:07:33.156Z,36.88
2023-04-26T18:10:00.417Z,36.83
2023-04-26T18:12:30.598Z,36.96
2023-04-26T18:14:57.841Z,37.19
2023-04-26T18:17:25.114Z,37.19
2023-04-26T18:19:52.393Z,37.33
2023-04-26T18:22:20.497Z,37.36
2023-04-26T18:24:47.685Z,37.30
2023-04-26T18:27:14.957Z,37.47
2023-04-26T18:29:42.353Z,37.47
2023-04-26T18:32:09.543Z,37.25
2023-04-26T18:34:36.719Z,37.53
2023-04-26T18:37:04.746Z,37.51
2023-04-26T18:39:32.115Z,37.66
2023-04-26T18:41:59.368Z,37.64
2023-04-26T18:44:26.700Z,37.57
2023-04-26T18:46:55.775Z,37.93
2023-04-26T18:49:23.628Z,37.78
2023-04-26T18:51:50.758Z,37.83
2023-04-26T18:54:17.918Z,37.89
2023-04-26T18:56:45.212Z,37.97
2023-04-26T18:59:12.938Z,38.05
2023-04-26T19:01:40.420Z,38.02
2023-04-26T19:04:09.106Z,38.07
2023-04-26T19:06:36.410Z,38.29
2023-04-26T19:09:05.860Z,38.05
2023-04-26T19:11:33.116Z,38.28
2023-04-26T19:14:00.390Z,38.12
2023-04-26T19:16:27.650Z,38.21
2023-04-26T19:18:55.093Z,38.13
2023-04-26T19:21:22.265Z,37.72
2023-04-26T19:23:49.439Z,36.69
2023-04-26T19:26:16.653Z,37.30
2023-04-26T19:28:43.894Z,37.40
2023-04-26T19:31:11.318Z,37.43
2023-04-26T19:33:38.600Z,37.48
2023-04-26T19:36:05.843Z,37.57
2023-04-26T19:38:33.149Z,37.68
2023-04-26T19:41:01.752Z,37.77
2023-04-26T19:43:29.038Z,37.79
2023-04-26T19:45:56.222Z,37.87
2023-04-26T19:48:23.432Z,37.97
2023-04-26T19:50:50.634Z,38.09
2023-04-26T19:53:17.865Z,38.17
2023-04-26T19:55:45.279Z,38.20
2023-04-26T19:58:12.685Z,38.16
2023-04-26T20:00:40.478Z,38.15
2023-04-26T20:03:08.516Z,38.18
2023-04-26T20:05:37.028Z,38.33
2023-04-26T20:08:04.255Z,38.30
2023-04-26T20:10:33.443Z,38.45
2023-04-26T20:13:00.903Z,38.38
2023-04-26T20:15:28.289Z,38.38
2023-04-26T20:17:55.672Z,38.43
2023-04-26T20:20:22.966Z,38.61
2023-04-26T20:22:50.222Z,38.47
2023-04-26T20:25:19.866Z,38.59
2023-04-26T20:27:47.710Z,38.81
2023-04-26T20:30:15.715Z,38.68
2023-04-26T20:32:43.250Z,38.76
2023-04-26T20:35:12.758Z,38.68
2023-04-26T20:37:40.065Z,38.52
2023-04-26T20:40:07.970Z,38.82
2023-04-26T20:42:35.417Z,38.76
2023-04-26T20:45:03.011Z,38.70
2023-04-26T20:47:30.500Z,38.85
2023-04-26T20:49:57.702Z,38.74
2023-04-26T20:52:24.984Z,38.78
2023-04-26T20:54:52.321Z,38.78
2023-04-26T20:57:19.551Z,38.86
2023-04-26T20:59:46.704Z,38.78
2023-04-26T21:02:14.022Z,38.83
2023-04-26T21:04:42.833Z,38.86
2023-04-26T21:07:11.096Z,38.91
2023-04-26T21:09:38.978Z,38.87
2023-04-26T21:12:06.695Z,38.97
2023-04-26T21:14:33.956Z,39.25
2023-04-26T21:17:01.460Z,39.24
2023-04-26T21:19:28.706Z,39.21
2023-04-26T21:21:56.609Z,39.23
2023-04-26T21:24:23.890Z,39.21
2023-04-26T21:26:51.125Z,39.10
2023-04-26T21:29:18.312Z,39.21
2023-04-26T21:31:45.889Z,39.25
2023-04-26T21:34:13.183Z,39.17
2023-04-26T21:36:40.365Z,39.23
2023-04-26T21:39:09.993Z,39.32
2023-04-26T21:41:37.517Z,39.41
2023-04-26T21:44:04.704Z,39.24
2023-04-26T21:46:32.030Z,39.13
2023-04-26T21:48:59.641Z,39.38
2023-04-26T21:51:27.829Z,39.27
2023-04-26T21:53:55.238Z,39.26
2023-04-26T21:56:22.396Z,39.18
2023-04-26T21:58:49.558Z,39.33
2023-04-26T22:01:16.846Z,39.26
2023-04-26T22:03:44.124Z,39.27
2023-04-26T22:06:12.037Z,39.37
2023-04-26T22:08:39.233Z,39.24
2023-04-26T22:11:06.849Z,39.25
2023-04-26T22:13:34.001Z,39.24
2023-04-26T22:16:01.256Z,39.42
2023-04-26T22:18:29.341Z,39.38
2023-04-26T22:20:56.717Z,39.29
2023-04-26T22:23:23.995Z,39.48
2023-04-26T22:25:52.328Z,39.55
2023-04-26T22:28:19.515Z,39.46
2023-04-26T22:30:46.775Z,39.47
2023-04-26T22:33:13.995Z,39.42
2023-04-26T22:35:41.539Z,39.62
2023-04-26T22:38:08.716Z,39.49
2023-04-26T22:40:36.273Z,39.69
2023-04-26T22:43:03.495Z,39.48
2023-04-26T22:45:30.675Z,39.55
2023-04-26T22:47:57.900Z,39.54
2023-04-26T22:50:25.352Z,39.67
2023-04-26T22:52:52.508Z,39.51
2023-04-26T22:55:19.892Z,39.64
2023-04-26T22:57:47.272Z,39.67
2023-04-26T23:00:15.130Z,39.58
2023-04-26T23:02:42.583Z,39.65
2023-04-26T23:05:10.439Z,39.71
2023-04-26T23:07:38.827Z,39.70
2023-04-26T23:10:06.818Z,39.69
2023-04-26T23:12:34.004Z,39.59
2023-04-26T23:15:01.906Z,39.72
2023-04-26T23:17:29.177Z,39.70
2023-04-26T23:19:56.496Z,39.66
2023-04-26T23:22:23.663Z,39.71
2023-04-26T23:24:51.512Z,39.75
2023-04-26T23:27:21.412Z,39.80
2023-04-26T23:29:51.405Z,39.63
2023-04-26T23:32:18.562Z,39.71
2023-04-26T23:34:45.718Z,39.83
2023-04-26T23:37:12.910Z,39.88
2023-04-26T23:39:40.102Z,39.84
2023-04-26T23:42:07.256Z,39.97
2023-04-26T23:44:34.467Z,39.88
2023-04-26T23:47:01.675Z,39.89
2023-04-26T23:49:28.855Z,39.97
2023-04-26T23:51:56.066Z,39.74
2023-04-26T23:54:23.304Z,39.86
2023-04-26T23:56:50.672Z,39.78
2023-04-26T23:59:17.992Z,40.10
